TAF KAXN
KAXN 090520Z 0906/1006 14017G25KT P6SM OVC150 FM091200 15011KT P6SM OVC100 FM091800 29015G24KT P6SM SCT150 FM100000 29010KT P6SM SKC=
METAR KAXN
WC KAXN
WS KAXN
WV KAXN